sensor_id;sensor_type;location;lat;lon;timestamp;P1;durP1;ratioP1;P2;durP2;ratioP2
48941;SDS011;35340;52.378;4.648;2022-08-19T00:02:01;6.85;;;3.60;;
48941;SDS011;35340;52.378;4.648;2022-08-19T00:04:29;8.85;;;3.80;;
48941;SDS011;35340;52.378;4.648;2022-08-19T00:06:57;5.40;;;3.03;;
48941;SDS011;35340;52.378;4.648;2022-08-19T00:09:24;6.65;;;3.65;;
48941;SDS011;35340;52.378;4.648;2022-08-19T00:11:50;5.43;;;3.40;;
48941;SDS011;35340;52.378;4.648;2022-08-19T00:14:16;5.88;;;3.40;;
48941;SDS011;35340;52.378;4.648;2022-08-19T00:16:44;4.13;;;3.30;;
48941;SDS011;35340;52.378;4.648;2022-08-19T00:19:10;4.90;;;3.72;;
48941;SDS011;35340;52.378;4.648;2022-08-19T00:21:37;4.63;;;3.40;;
48941;SDS011;35340;52.378;4.648;2022-08-19T00:24:05;4.45;;;3.42;;
48941;SDS011;35340;52.378;4.648;2022-08-19T00:26:31;4.38;;;3.30;;
48941;SDS011;35340;52.378;4.648;2022-08-19T00:28:57;5.65;;;3.42;;
48941;SDS011;35340;52.378;4.648;2022-08-19T00:31:22;5.35;;;3.30;;
48941;SDS011;35340;52.378;4.648;2022-08-19T00:33:48;5.40;;;3.30;;
48941;SDS011;35340;52.378;4.648;2022-08-19T00:36:15;4.63;;;3.42;;
48941;SDS011;35340;52.378;4.648;2022-08-19T00:38:41;5.32;;;3.00;;
48941;SDS011;35340;52.378;4.648;2022-08-19T00:41:08;5.05;;;3.30;;
48941;SDS011;35340;52.378;4.648;2022-08-19T00:43:35;4.28;;;3.40;;
48941;SDS011;35340;52.378;4.648;2022-08-19T00:46:00;5.18;;;3.20;;
48941;SDS011;35340;52.378;4.648;2022-08-19T00:48:29;5.05;;;3.50;;
48941;SDS011;35340;52.378;4.648;2022-08-19T00:50:56;4.93;;;3.03;;
48941;SDS011;35340;52.378;4.648;2022-08-19T00:53:23;3.95;;;3.08;;
48941;SDS011;35340;52.378;4.648;2022-08-19T00:55:52;6.60;;;3.05;;
48941;SDS011;35340;52.378;4.648;2022-08-19T00:58:22;4.63;;;3.25;;
48941;SDS011;35340;52.378;4.648;2022-08-19T01:00:53;5.55;;;3.35;;
48941;SDS011;35340;52.378;4.648;2022-08-19T01:03:19;5.55;;;3.13;;
48941;SDS011;35340;52.378;4.648;2022-08-19T01:05:46;4.68;;;3.00;;
48941;SDS011;35340;52.378;4.648;2022-08-19T01:08:13;3.85;;;2.83;;
48941;SDS011;35340;52.378;4.648;2022-08-19T01:10:42;4.05;;;2.72;;
48941;SDS011;35340;52.378;4.648;2022-08-19T01:13:12;4.80;;;3.00;;
48941;SDS011;35340;52.378;4.648;2022-08-19T01:15:41;5.88;;;2.78;;
48941;SDS011;35340;52.378;4.648;2022-08-19T01:18:10;3.70;;;2.80;;
48941;SDS011;35340;52.378;4.648;2022-08-19T01:20:40;4.35;;;3.17;;
48941;SDS011;35340;52.378;4.648;2022-08-19T01:25:32;5.63;;;2.93;;
48941;SDS011;35340;52.378;4.648;2022-08-19T01:28:04;4.88;;;2.92;;
48941;SDS011;35340;52.378;4.648;2022-08-19T01:30:31;7.20;;;3.20;;
48941;SDS011;35340;52.378;4.648;2022-08-19T01:32:59;3.88;;;2.80;;
48941;SDS011;35340;52.378;4.648;2022-08-19T01:35:25;5.65;;;3.15;;
48941;SDS011;35340;52.378;4.648;2022-08-19T01:37:55;3.58;;;2.78;;
48941;SDS011;35340;52.378;4.648;2022-08-19T01:40:26;5.30;;;2.80;;
48941;SDS011;35340;52.378;4.648;2022-08-19T01:42:54;4.00;;;3.10;;
48941;SDS011;35340;52.378;4.648;2022-08-19T01:45:20;4.20;;;2.78;;
48941;SDS011;35340;52.378;4.648;2022-08-19T01:47:47;5.57;;;2.90;;
48941;SDS011;35340;52.378;4.648;2022-08-19T01:50:13;4.85;;;3.05;;
48941;SDS011;35340;52.378;4.648;2022-08-19T01:52:40;8.27;;;2.80;;
48941;SDS011;35340;52.378;4.648;2022-08-19T01:55:09;3.40;;;2.42;;
48941;SDS011;35340;52.378;4.648;2022-08-19T01:57:36;8.32;;;2.80;;
48941;SDS011;35340;52.378;4.648;2022-08-19T02:00:05;3.47;;;2.63;;
48941;SDS011;35340;52.378;4.648;2022-08-19T02:02:31;4.10;;;2.67;;
48941;SDS011;35340;52.378;4.648;2022-08-19T02:04:59;6.20;;;3.00;;
48941;SDS011;35340;52.378;4.648;2022-08-19T02:07:24;6.32;;;3.40;;
48941;SDS011;35340;52.378;4.648;2022-08-19T02:09:50;4.03;;;2.95;;
48941;SDS011;35340;52.378;4.648;2022-08-19T02:12:18;9.63;;;3.00;;
48941;SDS011;35340;52.378;4.648;2022-08-19T02:14:45;3.63;;;2.67;;
48941;SDS011;35340;52.378;4.648;2022-08-19T02:17:10;3.88;;;3.00;;
48941;SDS011;35340;52.378;4.648;2022-08-19T02:19:37;4.07;;;3.00;;
48941;SDS011;35340;52.378;4.648;2022-08-19T02:22:11;4.10;;;2.58;;
48941;SDS011;35340;52.378;4.648;2022-08-19T02:24:47;6.57;;;2.83;;
48941;SDS011;35340;52.378;4.648;2022-08-19T02:27:15;5.07;;;2.75;;
48941;SDS011;35340;52.378;4.648;2022-08-19T02:29:48;4.60;;;2.60;;
48941;SDS011;35340;52.378;4.648;2022-08-19T02:32:21;4.20;;;2.72;;
48941;SDS011;35340;52.378;4.648;2022-08-19T02:34:49;4.75;;;2.88;;
48941;SDS011;35340;52.378;4.648;2022-08-19T02:37:16;5.95;;;3.10;;
48941;SDS011;35340;52.378;4.648;2022-08-19T02:40:00;3.75;;;2.50;;
48941;SDS011;35340;52.378;4.648;2022-08-19T02:42:31;4.47;;;2.80;;
48941;SDS011;35340;52.378;4.648;2022-08-19T02:44:57;4.38;;;2.90;;
48941;SDS011;35340;52.378;4.648;2022-08-19T02:47:24;5.82;;;2.88;;
48941;SDS011;35340;52.378;4.648;2022-08-19T02:49:51;3.75;;;2.70;;
48941;SDS011;35340;52.378;4.648;2022-08-19T02:52:18;4.85;;;3.05;;
48941;SDS011;35340;52.378;4.648;2022-08-19T02:55:09;4.55;;;2.90;;
48941;SDS011;35340;52.378;4.648;2022-08-19T02:57:34;5.78;;;3.05;;
48941;SDS011;35340;52.378;4.648;2022-08-19T03:02:31;4.68;;;3.08;;
48941;SDS011;35340;52.378;4.648;2022-08-19T03:04:57;4.90;;;3.50;;
48941;SDS011;35340;52.378;4.648;2022-08-19T03:07:23;4.78;;;3.33;;
48941;SDS011;35340;52.378;4.648;2022-08-19T03:09:49;5.05;;;2.90;;
48941;SDS011;35340;52.378;4.648;2022-08-19T03:12:15;6.50;;;3.60;;
48941;SDS011;35340;52.378;4.648;2022-08-19T03:14:40;4.22;;;3.00;;
48941;SDS011;35340;52.378;4.648;2022-08-19T03:19:31;7.35;;;3.50;;
48941;SDS011;35340;52.378;4.648;2022-08-19T03:22:05;5.28;;;3.40;;
48941;SDS011;35340;52.378;4.648;2022-08-19T03:24:31;5.80;;;3.30;;
48941;SDS011;35340;52.378;4.648;2022-08-19T03:26:59;5.78;;;3.42;;
48941;SDS011;35340;52.378;4.648;2022-08-19T03:29:31;5.00;;;3.70;;
48941;SDS011;35340;52.378;4.648;2022-08-19T03:32:04;4.40;;;3.40;;
48941;SDS011;35340;52.378;4.648;2022-08-19T03:34:32;5.03;;;3.50;;
48941;SDS011;35340;52.378;4.648;2022-08-19T03:37:05;5.67;;;3.80;;
48941;SDS011;35340;52.378;4.648;2022-08-19T03:39:31;5.03;;;3.60;;
48941;SDS011;35340;52.378;4.648;2022-08-19T03:42:29;5.72;;;3.63;;
48941;SDS011;35340;52.378;4.648;2022-08-19T03:44:56;6.13;;;3.85;;
48941;SDS011;35340;52.378;4.648;2022-08-19T03:47:28;4.88;;;4.15;;
48941;SDS011;35340;52.378;4.648;2022-08-19T03:49:55;5.80;;;4.10;;
48941;SDS011;35340;52.378;4.648;2022-08-19T03:52:32;5.50;;;3.88;;
48941;SDS011;35340;52.378;4.648;2022-08-19T03:55:05;5.63;;;4.18;;
48941;SDS011;35340;52.378;4.648;2022-08-19T03:57:32;8.52;;;3.85;;
48941;SDS011;35340;52.378;4.648;2022-08-19T03:59:59;7.35;;;4.50;;
48941;SDS011;35340;52.378;4.648;2022-08-19T04:02:31;6.78;;;4.88;;
48941;SDS011;35340;52.378;4.648;2022-08-19T04:04:57;7.85;;;5.20;;
48941;SDS011;35340;52.378;4.648;2022-08-19T04:07:23;6.47;;;4.70;;
48941;SDS011;35340;52.378;4.648;2022-08-19T04:09:49;6.10;;;4.88;;
48941;SDS011;35340;52.378;4.648;2022-08-19T04:12:17;5.57;;;4.85;;
48941;SDS011;35340;52.378;4.648;2022-08-19T04:14:46;6.70;;;5.00;;
48941;SDS011;35340;52.378;4.648;2022-08-19T04:17:19;6.38;;;4.75;;
48941;SDS011;35340;52.378;4.648;2022-08-19T04:20:05;5.00;;;4.50;;
48941;SDS011;35340;52.378;4.648;2022-08-19T04:22:33;7.05;;;4.82;;
48941;SDS011;35340;52.378;4.648;2022-08-19T04:24:58;5.95;;;4.93;;
48941;SDS011;35340;52.378;4.648;2022-08-19T04:27:24;8.40;;;5.50;;
48941;SDS011;35340;52.378;4.648;2022-08-19T04:29:49;7.32;;;5.18;;
48941;SDS011;35340;52.378;4.648;2022-08-19T04:32:15;8.00;;;5.63;;
48941;SDS011;35340;52.378;4.648;2022-08-19T04:34:50;6.90;;;5.32;;
48941;SDS011;35340;52.378;4.648;2022-08-19T04:37:15;6.18;;;4.93;;
48941;SDS011;35340;52.378;4.648;2022-08-19T04:39:42;6.82;;;5.45;;
48941;SDS011;35340;52.378;4.648;2022-08-19T04:42:28;6.50;;;5.28;;
48941;SDS011;35340;52.378;4.648;2022-08-19T04:47:45;6.57;;;4.82;;
48941;SDS011;35340;52.378;4.648;2022-08-19T04:50:17;6.70;;;5.15;;
48941;SDS011;35340;52.378;4.648;2022-08-19T04:52:45;7.70;;;5.22;;
48941;SDS011;35340;52.378;4.648;2022-08-19T04:55:19;7.28;;;5.03;;
48941;SDS011;35340;52.378;4.648;2022-08-19T04:57:53;7.70;;;5.03;;
48941;SDS011;35340;52.378;4.648;2022-08-19T05:00:21;7.25;;;5.35;;
48941;SDS011;35340;52.378;4.648;2022-08-19T05:02:48;8.20;;;5.90;;
48941;SDS011;35340;52.378;4.648;2022-08-19T05:05:14;6.90;;;5.68;;
48941;SDS011;35340;52.378;4.648;2022-08-19T05:07:40;7.47;;;5.30;;
48941;SDS011;35340;52.378;4.648;2022-08-19T05:10:06;8.10;;;6.15;;
48941;SDS011;35340;52.378;4.648;2022-08-19T05:12:31;8.95;;;6.53;;
48941;SDS011;35340;52.378;4.648;2022-08-19T05:14:57;9.25;;;6.00;;
48941;SDS011;35340;52.378;4.648;2022-08-19T05:17:24;8.52;;;6.50;;
48941;SDS011;35340;52.378;4.648;2022-08-19T05:19:50;9.90;;;6.32;;
48941;SDS011;35340;52.378;4.648;2022-08-19T05:22:31;7.38;;;5.65;;
48941;SDS011;35340;52.378;4.648;2022-08-19T05:24:57;10.45;;;6.25;;
48941;SDS011;35340;52.378;4.648;2022-08-19T05:27:23;8.35;;;6.60;;
48941;SDS011;35340;52.378;4.648;2022-08-19T05:29:48;9.98;;;6.82;;
48941;SDS011;35340;52.378;4.648;2022-08-19T05:32:14;11.75;;;7.03;;
48941;SDS011;35340;52.378;4.648;2022-08-19T05:34:39;11.77;;;6.90;;
48941;SDS011;35340;52.378;4.648;2022-08-19T05:37:05;9.82;;;7.00;;
48941;SDS011;35340;52.378;4.648;2022-08-19T05:39:32;10.52;;;7.30;;
48941;SDS011;35340;52.378;4.648;2022-08-19T05:42:01;10.55;;;7.43;;
48941;SDS011;35340;52.378;4.648;2022-08-19T05:44:29;10.30;;;6.80;;
48941;SDS011;35340;52.378;4.648;2022-08-19T05:46:57;10.25;;;7.95;;
48941;SDS011;35340;52.378;4.648;2022-08-19T05:49:24;11.18;;;7.57;;
48941;SDS011;35340;52.378;4.648;2022-08-19T05:51:50;11.52;;;8.07;;
48941;SDS011;35340;52.378;4.648;2022-08-19T05:54:17;12.00;;;7.78;;
48941;SDS011;35340;52.378;4.648;2022-08-19T05:56:44;12.88;;;7.85;;
48941;SDS011;35340;52.378;4.648;2022-08-19T05:59:12;14.68;;;6.80;;
48941;SDS011;35340;52.378;4.648;2022-08-19T06:01:47;14.25;;;5.75;;
48941;SDS011;35340;52.378;4.648;2022-08-19T06:04:17;11.45;;;9.15;;
48941;SDS011;35340;52.378;4.648;2022-08-19T06:06:45;19.40;;;13.85;;
48941;SDS011;35340;52.378;4.648;2022-08-19T06:09:12;21.85;;;16.73;;
48941;SDS011;35340;52.378;4.648;2022-08-19T06:11:45;28.73;;;18.52;;
48941;SDS011;35340;52.378;4.648;2022-08-19T06:14:14;27.42;;;18.55;;
48941;SDS011;35340;52.378;4.648;2022-08-19T06:16:42;28.15;;;18.73;;
48941;SDS011;35340;52.378;4.648;2022-08-19T06:19:10;28.90;;;20.15;;
48941;SDS011;35340;52.378;4.648;2022-08-19T06:21:38;34.50;;;20.90;;
48941;SDS011;35340;52.378;4.648;2022-08-19T06:24:05;32.17;;;21.80;;
48941;SDS011;35340;52.378;4.648;2022-08-19T06:26:33;33.58;;;22.35;;
48941;SDS011;35340;52.378;4.648;2022-08-19T06:29:00;32.60;;;21.58;;
48941;SDS011;35340;52.378;4.648;2022-08-19T06:31:26;33.45;;;22.60;;
48941;SDS011;35340;52.378;4.648;2022-08-19T06:33:58;32.80;;;21.67;;
48941;SDS011;35340;52.378;4.648;2022-08-19T06:36:31;32.55;;;22.17;;
48941;SDS011;35340;52.378;4.648;2022-08-19T07:11:27;25.45;;;16.83;;
48941;SDS011;35340;52.378;4.648;2022-08-19T07:23:45;27.38;;;15.30;;
48941;SDS011;35340;52.378;4.648;2022-08-19T07:29:44;25.98;;;13.55;;
48941;SDS011;35340;52.378;4.648;2022-08-19T07:51:41;15.63;;;7.63;;
48941;SDS011;35340;52.378;4.648;2022-08-19T07:54:08;25.95;;;10.68;;
48941;SDS011;35340;52.378;4.648;2022-08-19T08:16:47;13.63;;;5.38;;
48941;SDS011;35340;52.378;4.648;2022-08-19T08:40:30;11.60;;;5.00;;
48941;SDS011;35340;52.378;4.648;2022-08-19T08:45:44;9.95;;;5.20;;
48941;SDS011;35340;52.378;4.648;2022-08-19T08:48:22;10.50;;;5.15;;
48941;SDS011;35340;52.378;4.648;2022-08-19T09:10:22;13.40;;;4.90;;
48941;SDS011;35340;52.378;4.648;2022-08-19T09:18:22;10.98;;;5.55;;
48941;SDS011;35340;52.378;4.648;2022-08-19T09:23:30;9.60;;;5.15;;
48941;SDS011;35340;52.378;4.648;2022-08-19T09:25:55;11.05;;;5.00;;
48941;SDS011;35340;52.378;4.648;2022-08-19T09:28:21;9.93;;;4.75;;
48941;SDS011;35340;52.378;4.648;2022-08-19T09:30:49;11.38;;;4.88;;
48941;SDS011;35340;52.378;4.648;2022-08-19T09:33:17;10.77;;;4.50;;
48941;SDS011;35340;52.378;4.648;2022-08-19T09:35:45;12.27;;;4.53;;
48941;SDS011;35340;52.378;4.648;2022-08-19T09:38:11;8.57;;;3.85;;
48941;SDS011;35340;52.378;4.648;2022-08-19T09:40:36;12.45;;;4.78;;
48941;SDS011;35340;52.378;4.648;2022-08-19T09:43:02;11.65;;;4.63;;
48941;SDS011;35340;52.378;4.648;2022-08-19T09:45:28;7.65;;;4.32;;
48941;SDS011;35340;52.378;4.648;2022-08-19T09:47:53;14.98;;;5.60;;
48941;SDS011;35340;52.378;4.648;2022-08-19T09:50:21;18.40;;;6.47;;
48941;SDS011;35340;52.378;4.648;2022-08-19T09:53:06;17.42;;;6.55;;
48941;SDS011;35340;52.378;4.648;2022-08-19T10:14:26;8.15;;;4.50;;
48941;SDS011;35340;52.378;4.648;2022-08-19T10:21:42;8.55;;;3.90;;
48941;SDS011;35340;52.378;4.648;2022-08-19T10:24:08;9.32;;;3.75;;
48941;SDS011;35340;52.378;4.648;2022-08-19T10:26:38;8.02;;;4.00;;
48941;SDS011;35340;52.378;4.648;2022-08-19T10:52:12;6.22;;;3.08;;
48941;SDS011;35340;52.378;4.648;2022-08-19T10:55:00;9.30;;;3.28;;
48941;SDS011;35340;52.378;4.648;2022-08-19T10:57:32;6.00;;;3.03;;
48941;SDS011;35340;52.378;4.648;2022-08-19T10:59:58;6.72;;;3.05;;
48941;SDS011;35340;52.378;4.648;2022-08-19T11:02:23;7.78;;;3.22;;
48941;SDS011;35340;52.378;4.648;2022-08-19T11:04:49;6.75;;;3.00;;
48941;SDS011;35340;52.378;4.648;2022-08-19T11:07:16;8.55;;;3.50;;
48941;SDS011;35340;52.378;4.648;2022-08-19T11:09:41;6.13;;;2.97;;
48941;SDS011;35340;52.378;4.648;2022-08-19T11:12:09;8.77;;;3.17;;
48941;SDS011;35340;52.378;4.648;2022-08-19T11:14:35;7.43;;;3.38;;
48941;SDS011;35340;52.378;4.648;2022-08-19T11:17:02;8.20;;;3.20;;
48941;SDS011;35340;52.378;4.648;2022-08-19T11:19:28;7.38;;;2.92;;
48941;SDS011;35340;52.378;4.648;2022-08-19T11:21:54;8.48;;;3.05;;
48941;SDS011;35340;52.378;4.648;2022-08-19T11:24:21;7.50;;;2.90;;
48941;SDS011;35340;52.378;4.648;2022-08-19T11:26:52;5.53;;;2.72;;
48941;SDS011;35340;52.378;4.648;2022-08-19T11:29:26;7.28;;;3.00;;
48941;SDS011;35340;52.378;4.648;2022-08-19T11:31:52;5.28;;;2.83;;
48941;SDS011;35340;52.378;4.648;2022-08-19T11:34:21;5.50;;;2.80;;
48941;SDS011;35340;52.378;4.648;2022-08-19T11:36:48;6.95;;;3.15;;
48941;SDS011;35340;52.378;4.648;2022-08-19T11:39:18;7.05;;;2.90;;
48941;SDS011;35340;52.378;4.648;2022-08-19T11:41:45;5.60;;;2.97;;
48941;SDS011;35340;52.378;4.648;2022-08-19T11:44:11;5.70;;;2.75;;
48941;SDS011;35340;52.378;4.648;2022-08-19T11:46:38;5.55;;;2.95;;
48941;SDS011;35340;52.378;4.648;2022-08-19T11:49:05;7.97;;;3.05;;
48941;SDS011;35340;52.378;4.648;2022-08-19T11:51:31;8.85;;;3.30;;
48941;SDS011;35340;52.378;4.648;2022-08-19T11:53:58;6.82;;;2.78;;
48941;SDS011;35340;52.378;4.648;2022-08-19T11:56:24;7.22;;;3.00;;
48941;SDS011;35340;52.378;4.648;2022-08-19T11:58:51;9.68;;;3.15;;
48941;SDS011;35340;52.378;4.648;2022-08-19T12:01:19;8.52;;;3.30;;
48941;SDS011;35340;52.378;4.648;2022-08-19T12:03:47;8.20;;;3.13;;
48941;SDS011;35340;52.378;4.648;2022-08-19T12:06:18;7.55;;;3.10;;
48941;SDS011;35340;52.378;4.648;2022-08-19T12:08:48;7.28;;;2.92;;
48941;SDS011;35340;52.378;4.648;2022-08-19T12:11:14;5.75;;;2.72;;
48941;SDS011;35340;52.378;4.648;2022-08-19T12:13:40;6.60;;;2.40;;
48941;SDS011;35340;52.378;4.648;2022-08-19T12:16:10;6.28;;;2.58;;
48941;SDS011;35340;52.378;4.648;2022-08-19T12:18:37;5.45;;;2.35;;
48941;SDS011;35340;52.378;4.648;2022-08-19T12:21:03;6.38;;;2.30;;
48941;SDS011;35340;52.378;4.648;2022-08-19T12:35:18;6.70;;;1.70;;
48941;SDS011;35340;52.378;4.648;2022-08-19T12:37:45;5.20;;;1.63;;
48941;SDS011;35340;52.378;4.648;2022-08-19T12:40:12;5.25;;;1.65;;
48941;SDS011;35340;52.378;4.648;2022-08-19T12:42:40;3.95;;;1.67;;
48941;SDS011;35340;52.378;4.648;2022-08-19T12:45:14;2.85;;;1.60;;
48941;SDS011;35340;52.378;4.648;2022-08-19T12:47:39;2.83;;;1.50;;
48941;SDS011;35340;52.378;4.648;2022-08-19T12:50:09;4.70;;;1.55;;
48941;SDS011;35340;52.378;4.648;2022-08-19T12:52:36;3.53;;;1.80;;
48941;SDS011;35340;52.378;4.648;2022-08-19T12:55:02;4.32;;;1.65;;
48941;SDS011;35340;52.378;4.648;2022-08-19T12:57:30;3.20;;;1.77;;
48941;SDS011;35340;52.378;4.648;2022-08-19T13:02:35;3.83;;;1.40;;
48941;SDS011;35340;52.378;4.648;2022-08-19T13:05:02;4.18;;;1.80;;
48941;SDS011;35340;52.378;4.648;2022-08-19T13:07:33;4.95;;;1.63;;
48941;SDS011;35340;52.378;4.648;2022-08-19T13:09:59;3.90;;;1.50;;
48941;SDS011;35340;52.378;4.648;2022-08-19T13:12:28;4.03;;;1.80;;
48941;SDS011;35340;52.378;4.648;2022-08-19T13:14:54;4.63;;;1.60;;
48941;SDS011;35340;52.378;4.648;2022-08-19T13:17:20;3.45;;;1.48;;
48941;SDS011;35340;52.378;4.648;2022-08-19T13:19:45;4.68;;;1.65;;
48941;SDS011;35340;52.378;4.648;2022-08-19T13:22:11;3.65;;;1.63;;
48941;SDS011;35340;52.378;4.648;2022-08-19T13:24:37;6.85;;;1.55;;
48941;SDS011;35340;52.378;4.648;2022-08-19T13:27:06;2.80;;;1.55;;
48941;SDS011;35340;52.378;4.648;2022-08-19T13:29:32;3.88;;;1.70;;
48941;SDS011;35340;52.378;4.648;2022-08-19T13:32:16;5.63;;;1.98;;
48941;SDS011;35340;52.378;4.648;2022-08-19T13:35:00;2.63;;;1.40;;
48941;SDS011;35340;52.378;4.648;2022-08-19T13:37:26;3.15;;;1.58;;
48941;SDS011;35340;52.378;4.648;2022-08-19T13:42:32;3.20;;;1.38;;
48941;SDS011;35340;52.378;4.648;2022-08-19T13:45:00;4.13;;;1.67;;
48941;SDS011;35340;52.378;4.648;2022-08-19T13:47:26;4.07;;;1.60;;
48941;SDS011;35340;52.378;4.648;2022-08-19T13:49:51;5.03;;;1.73;;
48941;SDS011;35340;52.378;4.648;2022-08-19T13:52:19;2.13;;;1.45;;
48941;SDS011;35340;52.378;4.648;2022-08-19T13:54:44;2.67;;;1.58;;
48941;SDS011;35340;52.378;4.648;2022-08-19T13:57:12;4.03;;;1.75;;
48941;SDS011;35340;52.378;4.648;2022-08-19T13:59:38;5.68;;;2.08;;
48941;SDS011;35340;52.378;4.648;2022-08-19T14:02:03;5.35;;;1.80;;
48941;SDS011;35340;52.378;4.648;2022-08-19T14:04:30;4.63;;;1.90;;
48941;SDS011;35340;52.378;4.648;2022-08-19T14:06:56;4.43;;;2.00;;
48941;SDS011;35340;52.378;4.648;2022-08-19T14:09:21;5.32;;;1.98;;
48941;SDS011;35340;52.378;4.648;2022-08-19T14:11:47;4.82;;;2.17;;
48941;SDS011;35340;52.378;4.648;2022-08-19T14:14:12;4.05;;;1.88;;
48941;SDS011;35340;52.378;4.648;2022-08-19T14:16:40;4.68;;;2.00;;
48941;SDS011;35340;52.378;4.648;2022-08-19T14:19:06;3.55;;;2.22;;
48941;SDS011;35340;52.378;4.648;2022-08-19T14:21:32;4.68;;;2.00;;
48941;SDS011;35340;52.378;4.648;2022-08-19T14:23:58;2.50;;;1.77;;
48941;SDS011;35340;52.378;4.648;2022-08-19T14:26:23;4.75;;;1.92;;
48941;SDS011;35340;52.378;4.648;2022-08-19T14:28:49;5.35;;;1.90;;
48941;SDS011;35340;52.378;4.648;2022-08-19T14:31:15;4.47;;;2.08;;
48941;SDS011;35340;52.378;4.648;2022-08-19T14:33:44;3.90;;;1.88;;
48941;SDS011;35340;52.378;4.648;2022-08-19T14:36:12;3.65;;;2.00;;
48941;SDS011;35340;52.378;4.648;2022-08-19T14:38:38;4.90;;;1.85;;
48941;SDS011;35340;52.378;4.648;2022-08-19T14:43:32;3.63;;;2.03;;
48941;SDS011;35340;52.378;4.648;2022-08-19T14:45:57;4.35;;;1.80;;
48941;SDS011;35340;52.378;4.648;2022-08-19T14:48:22;5.35;;;1.80;;
48941;SDS011;35340;52.378;4.648;2022-08-19T14:50:48;5.15;;;1.98;;
48941;SDS011;35340;52.378;4.648;2022-08-19T14:53:13;3.83;;;1.73;;
48941;SDS011;35340;52.378;4.648;2022-08-19T15:05:55;3.70;;;1.70;;
48941;SDS011;35340;52.378;4.648;2022-08-19T15:08:29;2.35;;;1.70;;
48941;SDS011;35340;52.378;4.648;2022-08-19T15:32:13;4.38;;;1.52;;
48941;SDS011;35340;52.378;4.648;2022-08-19T16:00:23;3.47;;;1.50;;
48941;SDS011;35340;52.378;4.648;2022-08-19T16:43:13;1.67;;;1.10;;
48941;SDS011;35340;52.378;4.648;2022-08-19T16:56:30;2.75;;;1.00;;
48941;SDS011;35340;52.378;4.648;2022-08-19T16:59:00;2.47;;;1.00;;
48941;SDS011;35340;52.378;4.648;2022-08-19T17:03:54;3.58;;;1.60;;
48941;SDS011;35340;52.378;4.648;2022-08-19T17:06:26;3.38;;;1.60;;
48941;SDS011;35340;52.378;4.648;2022-08-19T17:15:17;4.10;;;1.95;;
48941;SDS011;35340;52.378;4.648;2022-08-19T17:37:23;3.25;;;1.65;;
48941;SDS011;35340;52.378;4.648;2022-08-19T17:43:25;3.63;;;1.52;;
48941;SDS011;35340;52.378;4.648;2022-08-19T17:46:52;3.65;;;1.80;;
48941;SDS011;35340;52.378;4.648;2022-08-19T17:49:17;2.35;;;1.63;;
48941;SDS011;35340;52.378;4.648;2022-08-19T17:51:47;3.05;;;1.90;;
48941;SDS011;35340;52.378;4.648;2022-08-19T17:57:05;4.78;;;2.03;;
48941;SDS011;35340;52.378;4.648;2022-08-19T18:18:00;4.43;;;2.27;;
48941;SDS011;35340;52.378;4.648;2022-08-19T18:23:30;6.80;;;1.92;;
48941;SDS011;35340;52.378;4.648;2022-08-19T18:26:00;3.67;;;2.10;;
48941;SDS011;35340;52.378;4.648;2022-08-19T18:28:30;7.35;;;2.30;;
48941;SDS011;35340;52.378;4.648;2022-08-19T18:31:05;6.60;;;2.60;;
48941;SDS011;35340;52.378;4.648;2022-08-19T18:33:33;6.47;;;2.83;;
48941;SDS011;35340;52.378;4.648;2022-08-19T18:36:02;4.07;;;2.60;;
48941;SDS011;35340;52.378;4.648;2022-08-19T18:38:29;4.78;;;2.47;;
48941;SDS011;35340;52.378;4.648;2022-08-19T18:41:15;6.28;;;2.67;;
48941;SDS011;35340;52.378;4.648;2022-08-19T18:44:21;4.38;;;2.13;;
48941;SDS011;35340;52.378;4.648;2022-08-19T18:50:30;4.10;;;2.20;;
48941;SDS011;35340;52.378;4.648;2022-08-19T19:00:26;3.65;;;2.30;;
48941;SDS011;35340;52.378;4.648;2022-08-19T19:02:52;4.00;;;2.15;;
48941;SDS011;35340;52.378;4.648;2022-08-19T19:05:18;4.28;;;2.30;;
48941;SDS011;35340;52.378;4.648;2022-08-19T19:07:46;5.78;;;2.33;;
48941;SDS011;35340;52.378;4.648;2022-08-19T19:10:12;3.40;;;2.30;;
48941;SDS011;35340;52.378;4.648;2022-08-19T19:12:39;4.80;;;2.22;;
48941;SDS011;35340;52.378;4.648;2022-08-19T19:15:06;3.53;;;2.28;;
48941;SDS011;35340;52.378;4.648;2022-08-19T19:17:32;4.53;;;2.28;;
48941;SDS011;35340;52.378;4.648;2022-08-19T19:19:57;4.43;;;2.38;;
48941;SDS011;35340;52.378;4.648;2022-08-19T19:22:23;3.53;;;2.00;;
48941;SDS011;35340;52.378;4.648;2022-08-19T19:24:49;2.63;;;1.90;;
48941;SDS011;35340;52.378;4.648;2022-08-19T19:27:16;3.85;;;2.17;;
48941;SDS011;35340;52.378;4.648;2022-08-19T19:29:44;3.45;;;2.35;;
48941;SDS011;35340;52.378;4.648;2022-08-19T19:32:19;3.97;;;2.10;;
48941;SDS011;35340;52.378;4.648;2022-08-19T19:34:53;3.08;;;1.88;;
48941;SDS011;35340;52.378;4.648;2022-08-19T19:37:18;4.22;;;2.28;;
48941;SDS011;35340;52.378;4.648;2022-08-19T19:39:44;4.72;;;2.22;;
48941;SDS011;35340;52.378;4.648;2022-08-19T19:42:12;2.90;;;2.10;;
48941;SDS011;35340;52.378;4.648;2022-08-19T19:44:43;3.28;;;2.05;;
48941;SDS011;35340;52.378;4.648;2022-08-19T19:47:12;3.33;;;1.80;;
48941;SDS011;35340;52.378;4.648;2022-08-19T19:49:37;3.78;;;1.83;;
48941;SDS011;35340;52.378;4.648;2022-08-19T19:52:04;3.33;;;1.92;;
48941;SDS011;35340;52.378;4.648;2022-08-19T19:54:31;3.85;;;2.00;;
48941;SDS011;35340;52.378;4.648;2022-08-19T19:56:57;2.60;;;1.70;;
48941;SDS011;35340;52.378;4.648;2022-08-19T19:59:23;3.38;;;2.03;;
48941;SDS011;35340;52.378;4.648;2022-08-19T20:01:48;6.20;;;1.90;;
48941;SDS011;35340;52.378;4.648;2022-08-19T20:04:15;3.25;;;1.80;;
48941;SDS011;35340;52.378;4.648;2022-08-19T20:06:42;2.58;;;1.70;;
48941;SDS011;35340;52.378;4.648;2022-08-19T20:09:08;3.47;;;1.77;;
48941;SDS011;35340;52.378;4.648;2022-08-19T20:14:09;3.05;;;1.83;;
48941;SDS011;35340;52.378;4.648;2022-08-19T20:16:37;2.50;;;1.65;;
48941;SDS011;35340;52.378;4.648;2022-08-19T20:21:32;4.07;;;1.88;;
48941;SDS011;35340;52.378;4.648;2022-08-19T20:24:02;3.42;;;2.00;;
48941;SDS011;35340;52.378;4.648;2022-08-19T20:26:30;3.22;;;1.90;;
48941;SDS011;35340;52.378;4.648;2022-08-19T20:28:56;3.33;;;1.92;;
48941;SDS011;35340;52.378;4.648;2022-08-19T20:31:23;3.65;;;2.10;;
48941;SDS011;35340;52.378;4.648;2022-08-19T20:33:49;4.15;;;2.17;;
48941;SDS011;35340;52.378;4.648;2022-08-19T20:36:14;6.05;;;2.10;;
48941;SDS011;35340;52.378;4.648;2022-08-19T20:38:40;2.97;;;1.67;;
48941;SDS011;35340;52.378;4.648;2022-08-19T20:41:06;2.83;;;1.60;;
48941;SDS011;35340;52.378;4.648;2022-08-19T20:43:35;3.58;;;1.67;;
48941;SDS011;35340;52.378;4.648;2022-08-19T20:46:01;3.47;;;2.00;;
48941;SDS011;35340;52.378;4.648;2022-08-19T20:48:26;3.42;;;1.90;;
48941;SDS011;35340;52.378;4.648;2022-08-19T20:50:52;4.65;;;2.20;;
48941;SDS011;35340;52.378;4.648;2022-08-19T20:53:24;3.25;;;1.98;;
48941;SDS011;35340;52.378;4.648;2022-08-19T20:55:53;4.93;;;1.90;;
48941;SDS011;35340;52.378;4.648;2022-08-19T20:58:22;3.13;;;1.88;;
48941;SDS011;35340;52.378;4.648;2022-08-19T21:00:50;4.20;;;1.90;;
48941;SDS011;35340;52.378;4.648;2022-08-19T21:03:19;3.97;;;1.75;;
48941;SDS011;35340;52.378;4.648;2022-08-19T21:05:51;2.50;;;1.80;;
48941;SDS011;35340;52.378;4.648;2022-08-19T21:08:39;3.58;;;1.90;;
48941;SDS011;35340;52.378;4.648;2022-08-19T21:27:40;3.47;;;1.80;;
48941;SDS011;35340;52.378;4.648;2022-08-19T21:47:40;4.20;;;1.83;;
48941;SDS011;35340;52.378;4.648;2022-08-19T21:50:46;5.05;;;1.90;;
48941;SDS011;35340;52.378;4.648;2022-08-19T21:54:00;3.85;;;1.88;;
48941;SDS011;35340;52.378;4.648;2022-08-19T22:08:38;4.95;;;2.20;;
48941;SDS011;35340;52.378;4.648;2022-08-19T22:11:13;3.33;;;1.90;;
48941;SDS011;35340;52.378;4.648;2022-08-19T22:13:48;4.43;;;2.17;;
48941;SDS011;35340;52.378;4.648;2022-08-19T22:22:51;5.32;;;1.90;;